Palo Pinto, Texas
Current Conditions -  °F | °C
As of 10:53 AM on Wednesday 26 Nov 2014 (Local Time) from KMWL Reporting Station
Clear Clear  
Wind Chill: 57°   Ceiling: Unl
Heat Index: 57°   Visibility: 10mi
Dew Point: 30°   Wind: 16mph
Humidity: 36%   Direction: 360°N
Pressure: 30.17"   Gusts: NA
Location:  32.77°N, 98.3°W
Report Text: KMWL 261653Z AUTO 36014KT 10SM CLR 14/M01 A3017 RMK AO2 RAB1554E09 SLP214 P0000 T01391011 $
Loading
Personal Weather Stations






























Interactive Weather Map New forecast layout! Learn more

10-Day Weather Forecast

Advertisements
Track Severe Weather on mobile